KCSQ/CSQ METAR and TAF weather

Enter ICAO airport designator
Station Type Date Time Source
KCSQ METAR 2021/05/17 22:15 UTC NOAA

KCSQ 172215Z AUTO 08014KT 10SM OVC012 17/17 A3000 RMK AO2


Station Type Date Time Source
KCSQ Decoded METAR 2021/05/17 22:15 UTC NOAA

Creston, IA, United States (KCSQ) 41-01N 094-22W
May 17, 2021 - 06:15 PM EDT / 2021.05.17 2215 UTC
Wind: from the E (080 degrees) at 16 MPH (14 KT):0
Visibility: 10 mile(s):0
Sky conditions: overcast
Temperature: 62 F (17 C)
Dew Point: 62 F (17 C)
Relative Humidity: 100%
Pressure (altimeter): 30 in. Hg (1015 hPa)
ob: KCSQ 172215Z AUTO 08014KT 10SM OVC012 17/17 A3000 RMK AO2
cycle: 22

Station Type Date Time Source
KCSQ TAF UTC NOAA

Error!

Example: see airport list